sensor_id;sensor_type;location;lat;lon;timestamp;pressure;altitude;pressure_sealevel;temperature;humidity
64368;BME280;50692;53.314;-6.300;2023-02-01T00:02:31;102051.66;;;7.63;78.33
64368;BME280;50692;53.314;-6.300;2023-02-01T00:05:17;102047.25;;;7.64;78.46
64368;BME280;50692;53.314;-6.300;2023-02-01T00:08:04;101999.69;;;7.28;78.59
64368;BME280;50692;53.314;-6.300;2023-02-01T00:11:08;102023.78;;;7.52;78.44
64368;BME280;50692;53.314;-6.300;2023-02-01T00:14:07;102033.44;;;7.53;78.24
64368;BME280;50692;53.314;-6.300;2023-02-01T00:17:08;102038.72;;;7.51;78.11
64368;BME280;50692;53.314;-6.300;2023-02-01T00:19:58;102034.22;;;7.58;78.01
64368;BME280;50692;53.314;-6.300;2023-02-01T00:22:46;102014.16;;;7.52;77.88
64368;BME280;50692;53.314;-6.300;2023-02-01T00:25:33;102042.09;;;7.59;77.84
64368;BME280;50692;53.314;-6.300;2023-02-01T00:28:21;102029.94;;;7.52;78.01
64368;BME280;50692;53.314;-6.300;2023-02-01T00:31:07;102031.00;;;7.42;78.49
64368;BME280;50692;53.314;-6.300;2023-02-01T00:33:58;102030.31;;;7.32;78.59
64368;BME280;50692;53.314;-6.300;2023-02-01T00:36:44;102025.81;;;7.37;78.46
64368;BME280;50692;53.314;-6.300;2023-02-01T00:39:30;102035.25;;;7.49;78.63
64368;BME280;50692;53.314;-6.300;2023-02-01T00:42:16;102057.13;;;7.51;78.69
64368;BME280;50692;53.314;-6.300;2023-02-01T00:45:04;102033.59;;;7.45;78.98
64368;BME280;50692;53.314;-6.300;2023-02-01T00:47:50;102044.78;;;7.55;78.47
64368;BME280;50692;53.314;-6.300;2023-02-01T00:50:42;102017.81;;;7.43;78.55
64368;BME280;50692;53.314;-6.300;2023-02-01T00:53:29;102010.78;;;7.44;78.32
64368;BME280;50692;53.314;-6.300;2023-02-01T00:56:17;102022.81;;;7.57;77.92
64368;BME280;50692;53.314;-6.300;2023-02-01T00:59:05;102032.31;;;7.64;77.73
64368;BME280;50692;53.314;-6.300;2023-02-01T01:02:00;102001.06;;;7.49;77.28
64368;BME280;50692;53.314;-6.300;2023-02-01T01:04:46;102037.53;;;7.67;77.47
64368;BME280;50692;53.314;-6.300;2023-02-01T01:07:32;102040.97;;;7.69;77.43
64368;BME280;50692;53.314;-6.300;2023-02-01T01:10:19;102042.69;;;7.72;77.40
64368;BME280;50692;53.314;-6.300;2023-02-01T01:13:05;102049.66;;;7.75;77.48
64368;BME280;50692;53.314;-6.300;2023-02-01T01:15:51;102031.25;;;7.73;78.02
64368;BME280;50692;53.314;-6.300;2023-02-01T01:18:38;102037.41;;;7.74;78.43
64368;BME280;50692;53.314;-6.300;2023-02-01T01:21:24;102030.22;;;7.82;78.71
64368;BME280;50692;53.314;-6.300;2023-02-01T01:24:11;102025.28;;;7.66;79.39
64368;BME280;50692;53.314;-6.300;2023-02-01T01:26:57;102032.91;;;7.79;80.01
64368;BME280;50692;53.314;-6.300;2023-02-01T01:29:43;102036.31;;;7.84;79.89
64368;BME280;50692;53.314;-6.300;2023-02-01T01:32:29;102042.59;;;7.77;80.84
64368;BME280;50692;53.314;-6.300;2023-02-01T01:35:15;102009.66;;;7.57;81.35
64368;BME280;50692;53.314;-6.300;2023-02-01T01:38:01;102038.22;;;7.77;81.31
64368;BME280;50692;53.314;-6.300;2023-02-01T01:40:48;102039.09;;;7.78;81.75
64368;BME280;50692;53.314;-6.300;2023-02-01T01:43:58;102026.72;;;7.81;81.93
64368;BME280;50692;53.314;-6.300;2023-02-01T01:46:44;102018.91;;;7.77;82.02
64368;BME280;50692;53.314;-6.300;2023-02-01T01:49:33;102001.38;;;7.76;81.81
64368;BME280;50692;53.314;-6.300;2023-02-01T01:52:19;102024.84;;;7.86;81.31
64368;BME280;50692;53.314;-6.300;2023-02-01T01:55:06;102030.88;;;7.93;81.39
64368;BME280;50692;53.314;-6.300;2023-02-01T01:57:58;102005.84;;;7.74;81.19
64368;BME280;50692;53.314;-6.300;2023-02-01T02:00:46;102008.25;;;7.83;81.50
64368;BME280;50692;53.314;-6.300;2023-02-01T02:03:42;102006.72;;;7.73;81.82
64368;BME280;50692;53.314;-6.300;2023-02-01T02:09:53;102011.91;;;7.76;82.08
64368;BME280;50692;53.314;-6.300;2023-02-01T02:12:41;101985.94;;;7.59;82.15
64368;BME280;50692;53.314;-6.300;2023-02-01T02:15:27;102002.50;;;7.64;82.45
64368;BME280;50692;53.314;-6.300;2023-02-01T02:18:26;102005.09;;;7.67;82.37
64368;BME280;50692;53.314;-6.300;2023-02-01T02:24:46;101995.44;;;7.66;81.97
64368;BME280;50692;53.314;-6.300;2023-02-01T02:28:19;102001.66;;;7.63;81.97
64368;BME280;50692;53.314;-6.300;2023-02-01T02:40:32;102001.50;;;7.69;81.29
64368;BME280;50692;53.314;-6.300;2023-02-01T02:43:45;101996.19;;;7.73;80.83
64368;BME280;50692;53.314;-6.300;2023-02-01T02:46:57;102004.22;;;7.66;80.85
64368;BME280;50692;53.314;-6.300;2023-02-01T02:50:13;101983.50;;;7.50;81.08
64368;BME280;50692;53.314;-6.300;2023-02-01T02:53:30;101986.66;;;7.67;80.57
64368;BME280;50692;53.314;-6.300;2023-02-01T02:56:37;101987.63;;;7.63;80.61
64368;BME280;50692;53.314;-6.300;2023-02-01T02:59:45;101978.03;;;7.59;80.55
64368;BME280;50692;53.314;-6.300;2023-02-01T03:02:51;101995.47;;;7.64;80.77
64368;BME280;50692;53.314;-6.300;2023-02-01T03:05:56;101980.78;;;7.54;80.67
64368;BME280;50692;53.314;-6.300;2023-02-01T03:08:42;102004.19;;;7.68;80.99
64368;BME280;50692;53.314;-6.300;2023-02-01T03:11:32;101996.34;;;7.66;81.01
64368;BME280;50692;53.314;-6.300;2023-02-01T03:14:38;101979.00;;;7.56;81.62
64368;BME280;50692;53.314;-6.300;2023-02-01T03:17:27;101987.53;;;7.67;81.60
64368;BME280;50692;53.314;-6.300;2023-02-01T03:20:18;101958.97;;;7.48;81.52
64368;BME280;50692;53.314;-6.300;2023-02-01T03:23:05;101978.88;;;7.61;81.19
64368;BME280;50692;53.314;-6.300;2023-02-01T03:25:54;101980.59;;;7.63;81.47
64368;BME280;50692;53.314;-6.300;2023-02-01T03:28:51;101994.56;;;7.67;81.38
64368;BME280;50692;53.314;-6.300;2023-02-01T03:31:43;101973.72;;;7.56;81.42
64368;BME280;50692;53.314;-6.300;2023-02-01T03:34:29;101965.84;;;7.55;81.48
64368;BME280;50692;53.314;-6.300;2023-02-01T03:37:25;101969.47;;;7.49;81.81
64368;BME280;50692;53.314;-6.300;2023-02-01T03:40:17;101994.72;;;7.58;82.36
64368;BME280;50692;53.314;-6.300;2023-02-01T03:43:06;101985.84;;;7.63;82.61
64368;BME280;50692;53.314;-6.300;2023-02-01T03:46:00;101985.06;;;7.58;82.51
64368;BME280;50692;53.314;-6.300;2023-02-01T03:48:49;101986.03;;;7.54;82.56
64368;BME280;50692;53.314;-6.300;2023-02-01T03:51:54;101992.03;;;7.61;82.49
64368;BME280;50692;53.314;-6.300;2023-02-01T03:54:42;101981.63;;;7.56;82.35
64368;BME280;50692;53.314;-6.300;2023-02-01T03:57:40;101964.06;;;7.55;82.54
64368;BME280;50692;53.314;-6.300;2023-02-01T04:00:27;101929.44;;;7.33;82.55
64368;BME280;50692;53.314;-6.300;2023-02-01T04:03:14;101931.84;;;7.45;82.30
64368;BME280;50692;53.314;-6.300;2023-02-01T04:06:00;101945.81;;;7.48;82.57
64368;BME280;50692;53.314;-6.300;2023-02-01T04:08:46;101948.06;;;7.66;82.13
64368;BME280;50692;53.314;-6.300;2023-02-01T04:11:34;101948.06;;;7.67;81.78
64368;BME280;50692;53.314;-6.300;2023-02-01T04:14:20;101960.13;;;7.78;81.42
64368;BME280;50692;53.314;-6.300;2023-02-01T04:17:06;101938.16;;;7.79;80.93
64368;BME280;50692;53.314;-6.300;2023-02-01T04:19:52;101938.72;;;7.91;80.42
64368;BME280;50692;53.314;-6.300;2023-02-01T04:22:40;101952.75;;;7.93;80.23
64368;BME280;50692;53.314;-6.300;2023-02-01T04:25:26;101922.13;;;7.88;79.61
64368;BME280;50692;53.314;-6.300;2023-02-01T04:28:14;101923.72;;;7.97;79.70
64368;BME280;50692;53.314;-6.300;2023-02-01T04:31:01;101946.38;;;8.02;79.09
64368;BME280;50692;53.314;-6.300;2023-02-01T04:33:52;101934.13;;;8.01;79.03
64368;BME280;50692;53.314;-6.300;2023-02-01T04:36:59;101941.06;;;8.05;78.91
64368;BME280;50692;53.314;-6.300;2023-02-01T04:39:46;101943.59;;;8.10;78.64
64368;BME280;50692;53.314;-6.300;2023-02-01T04:42:34;101946.25;;;8.10;78.50
64368;BME280;50692;53.314;-6.300;2023-02-01T04:45:21;101935.59;;;8.13;78.12
64368;BME280;50692;53.314;-6.300;2023-02-01T04:48:07;101950.72;;;8.05;78.45
64368;BME280;50692;53.314;-6.300;2023-02-01T04:50:53;101921.28;;;7.87;78.15
64368;BME280;50692;53.314;-6.300;2023-02-01T04:53:41;101919.50;;;7.89;78.50
64368;BME280;50692;53.314;-6.300;2023-02-01T04:56:29;101934.25;;;7.97;78.24
64368;BME280;50692;53.314;-6.300;2023-02-01T04:59:15;101909.09;;;7.83;78.75
64368;BME280;50692;53.314;-6.300;2023-02-01T05:02:01;101916.00;;;7.87;78.43
64368;BME280;50692;53.314;-6.300;2023-02-01T05:04:47;101936.91;;;7.95;78.29
64368;BME280;50692;53.314;-6.300;2023-02-01T05:07:34;101917.09;;;7.79;78.33
64368;BME280;50692;53.314;-6.300;2023-02-01T05:10:21;101931.75;;;7.90;78.29
64368;BME280;50692;53.314;-6.300;2023-02-01T05:13:09;101943.25;;;7.86;78.31
64368;BME280;50692;53.314;-6.300;2023-02-01T05:16:14;101926.81;;;7.75;78.26
64368;BME280;50692;53.314;-6.300;2023-02-01T05:19:00;101924.13;;;7.78;78.47
64368;BME280;50692;53.314;-6.300;2023-02-01T05:21:48;101938.19;;;7.77;78.67
64368;BME280;50692;53.314;-6.300;2023-02-01T05:24:35;101937.19;;;7.83;78.75
64368;BME280;50692;53.314;-6.300;2023-02-01T05:27:22;101948.69;;;7.79;78.56
64368;BME280;50692;53.314;-6.300;2023-02-01T05:30:08;101949.31;;;7.90;78.48
64368;BME280;50692;53.314;-6.300;2023-02-01T05:32:54;101950.97;;;7.94;78.45
64368;BME280;50692;53.314;-6.300;2023-02-01T05:35:40;101935.72;;;7.69;78.97
64368;BME280;50692;53.314;-6.300;2023-02-01T05:38:27;101945.75;;;7.92;78.33
64368;BME280;50692;53.314;-6.300;2023-02-01T05:41:15;101953.47;;;8.00;78.64
64368;BME280;50692;53.314;-6.300;2023-02-01T05:44:02;101955.81;;;8.14;78.27
64368;BME280;50692;53.314;-6.300;2023-02-01T05:46:48;101960.28;;;8.10;78.59
64368;BME280;50692;53.314;-6.300;2023-02-01T05:49:34;101928.88;;;8.01;78.32
64368;BME280;50692;53.314;-6.300;2023-02-01T05:52:22;101938.28;;;8.11;78.44
64368;BME280;50692;53.314;-6.300;2023-02-01T05:55:08;101902.03;;;7.84;78.60
64368;BME280;50692;53.314;-6.300;2023-02-01T05:57:53;101940.00;;;8.12;78.86
64368;BME280;50692;53.314;-6.300;2023-02-01T06:00:39;101941.09;;;8.04;79.42
64368;BME280;50692;53.314;-6.300;2023-02-01T06:03:27;101930.75;;;7.96;79.88
64368;BME280;50692;53.314;-6.300;2023-02-01T06:06:13;101938.59;;;7.98;80.38
64368;BME280;50692;53.314;-6.300;2023-02-01T06:09:06;101941.28;;;7.94;80.58
64368;BME280;50692;53.314;-6.300;2023-02-01T06:11:52;101944.72;;;8.00;80.88
64368;BME280;50692;53.314;-6.300;2023-02-01T06:14:39;101931.59;;;7.97;80.75
64368;BME280;50692;53.314;-6.300;2023-02-01T06:17:27;101941.28;;;7.96;81.12
64368;BME280;50692;53.314;-6.300;2023-02-01T06:20:14;101935.09;;;7.97;81.34
64368;BME280;50692;53.314;-6.300;2023-02-01T06:23:00;101936.88;;;7.97;81.59
64368;BME280;50692;53.314;-6.300;2023-02-01T06:25:46;101924.88;;;7.85;81.76
64368;BME280;50692;53.314;-6.300;2023-02-01T06:28:33;101947.34;;;8.00;81.94
64368;BME280;50692;53.314;-6.300;2023-02-01T06:31:19;101946.56;;;7.94;82.23
64368;BME280;50692;53.314;-6.300;2023-02-01T06:34:05;101929.09;;;7.92;82.03
64368;BME280;50692;53.314;-6.300;2023-02-01T06:36:51;101940.19;;;8.06;81.60
64368;BME280;50692;53.314;-6.300;2023-02-01T06:39:37;101932.59;;;7.92;82.06
64368;BME280;50692;53.314;-6.300;2023-02-01T06:42:24;101936.75;;;8.03;81.77
64368;BME280;50692;53.314;-6.300;2023-02-01T06:45:12;101942.97;;;7.99;81.90
64368;BME280;50692;53.314;-6.300;2023-02-01T06:48:03;101954.28;;;8.04;81.62
64368;BME280;50692;53.314;-6.300;2023-02-01T06:50:49;101967.50;;;8.01;81.82
64368;BME280;50692;53.314;-6.300;2023-02-01T06:54:01;101967.31;;;8.08;81.64
64368;BME280;50692;53.314;-6.300;2023-02-01T06:57:03;101961.25;;;8.05;81.60
64368;BME280;50692;53.314;-6.300;2023-02-01T06:59:51;101958.63;;;8.06;81.49
64368;BME280;50692;53.314;-6.300;2023-02-01T07:02:39;101955.13;;;8.04;82.00
64368;BME280;50692;53.314;-6.300;2023-02-01T07:05:25;101958.56;;;8.08;81.97
64368;BME280;50692;53.314;-6.300;2023-02-01T07:08:11;101952.44;;;8.06;82.33
64368;BME280;50692;53.314;-6.300;2023-02-01T07:11:05;101932.59;;;7.91;82.28
64368;BME280;50692;53.314;-6.300;2023-02-01T07:13:51;101966.34;;;8.14;82.16
64368;BME280;50692;53.314;-6.300;2023-02-01T07:16:37;101922.13;;;7.88;81.98
64368;BME280;50692;53.314;-6.300;2023-02-01T07:19:23;101967.19;;;8.14;82.17
64368;BME280;50692;53.314;-6.300;2023-02-01T07:22:12;101954.84;;;8.16;82.13
64368;BME280;50692;53.314;-6.300;2023-02-01T07:24:58;101936.56;;;8.10;82.21
64368;BME280;50692;53.314;-6.300;2023-02-01T07:27:44;101967.19;;;8.14;82.39
64368;BME280;50692;53.314;-6.300;2023-02-01T07:30:31;101961.88;;;8.17;82.36
64368;BME280;50692;53.314;-6.300;2023-02-01T07:33:23;101924.56;;;7.97;82.83
64368;BME280;50692;53.314;-6.300;2023-02-01T07:36:16;101952.19;;;8.18;82.79
64368;BME280;50692;53.314;-6.300;2023-02-01T07:39:03;101961.00;;;8.17;82.78
64368;BME280;50692;53.314;-6.300;2023-02-01T07:41:49;101943.13;;;7.92;83.28
64368;BME280;50692;53.314;-6.300;2023-02-01T07:44:35;101941.00;;;8.08;83.34
64368;BME280;50692;53.314;-6.300;2023-02-01T07:47:23;101942.72;;;8.09;83.41
64368;BME280;50692;53.314;-6.300;2023-02-01T07:50:13;101963.53;;;8.22;83.51
64368;BME280;50692;53.314;-6.300;2023-02-01T07:53:02;101956.47;;;8.22;83.88
64368;BME280;50692;53.314;-6.300;2023-02-01T07:55:51;101956.69;;;8.13;83.98
64368;BME280;50692;53.314;-6.300;2023-02-01T07:58:37;101965.28;;;8.21;84.30
64368;BME280;50692;53.314;-6.300;2023-02-01T08:01:25;101963.38;;;8.28;84.02
64368;BME280;50692;53.314;-6.300;2023-02-01T08:04:12;101962.75;;;8.16;84.39
64368;BME280;50692;53.314;-6.300;2023-02-01T08:07:01;101944.66;;;8.01;84.37
64368;BME280;50692;53.314;-6.300;2023-02-01T08:09:46;101978.41;;;8.24;84.28
64368;BME280;50692;53.314;-6.300;2023-02-01T08:12:32;101994.09;;;8.27;84.43
64368;BME280;50692;53.314;-6.300;2023-02-01T08:15:18;101955.03;;;8.09;84.22
64368;BME280;50692;53.314;-6.300;2023-02-01T08:18:05;101982.94;;;8.17;84.48
64368;BME280;50692;53.314;-6.300;2023-02-01T08:20:51;101997.50;;;8.32;84.32
64368;BME280;50692;53.314;-6.300;2023-02-01T08:23:38;101992.31;;;8.29;84.31
64368;BME280;50692;53.314;-6.300;2023-02-01T08:26:25;101985.25;;;8.31;84.24
64368;BME280;50692;53.314;-6.300;2023-02-01T08:29:13;102000.75;;;8.45;83.95
64368;BME280;50692;53.314;-6.300;2023-02-01T08:32:02;102006.06;;;8.44;84.62
64368;BME280;50692;53.314;-6.300;2023-02-01T08:34:51;102006.81;;;8.49;84.07
64368;BME280;50692;53.314;-6.300;2023-02-01T08:37:37;101994.78;;;8.38;84.51
64368;BME280;50692;53.314;-6.300;2023-02-01T08:40:23;101995.47;;;8.47;84.37
64368;BME280;50692;53.314;-6.300;2023-02-01T08:43:09;102021.25;;;8.70;84.01
64368;BME280;50692;53.314;-6.300;2023-02-01T08:45:56;102018.59;;;8.71;83.88
64368;BME280;50692;53.314;-6.300;2023-02-01T08:48:42;102006.56;;;8.59;83.28
64368;BME280;50692;53.314;-6.300;2023-02-01T08:51:28;102023.53;;;8.85;82.91
64368;BME280;50692;53.314;-6.300;2023-02-01T08:54:14;102001.66;;;8.81;82.41
64368;BME280;50692;53.314;-6.300;2023-02-01T08:57:00;102032.19;;;8.90;82.23
64368;BME280;50692;53.314;-6.300;2023-02-01T08:59:46;101988.00;;;8.64;82.12
64368;BME280;50692;53.314;-6.300;2023-02-01T09:02:32;102032.09;;;8.93;82.05
64368;BME280;50692;53.314;-6.300;2023-02-01T09:05:17;101966.34;;;8.53;81.46
64368;BME280;50692;53.314;-6.300;2023-02-01T09:08:07;102035.47;;;9.00;81.46
64368;BME280;50692;53.314;-6.300;2023-02-01T09:10:57;101997.16;;;8.85;80.99
64368;BME280;50692;53.314;-6.300;2023-02-01T09:13:44;102039.56;;;9.11;80.83
64368;BME280;50692;53.314;-6.300;2023-02-01T09:16:30;102037.50;;;9.23;80.51
64368;BME280;50692;53.314;-6.300;2023-02-01T09:19:16;102052.97;;;9.36;80.27
64368;BME280;50692;53.314;-6.300;2023-02-01T09:22:03;102057.41;;;9.34;79.91
64368;BME280;50692;53.314;-6.300;2023-02-01T09:24:50;102041.50;;;9.37;79.78
64368;BME280;50692;53.314;-6.300;2023-02-01T09:27:38;102051.25;;;9.34;79.89
64368;BME280;50692;53.314;-6.300;2023-02-01T09:30:26;102069.59;;;9.40;79.55
64368;BME280;50692;53.314;-6.300;2023-02-01T09:33:12;102066.25;;;9.33;79.83
64368;BME280;50692;53.314;-6.300;2023-02-01T09:36:01;102050.38;;;9.35;79.88
64368;BME280;50692;53.314;-6.300;2023-02-01T09:38:50;102051.19;;;9.37;79.58
64368;BME280;50692;53.314;-6.300;2023-02-01T09:48:24;102066.59;;;9.52;79.10
64368;BME280;50692;53.314;-6.300;2023-02-01T09:51:25;102071.69;;;9.60;79.37
64368;BME280;50692;53.314;-6.300;2023-02-01T09:54:17;102076.88;;;9.63;79.45
64368;BME280;50692;53.314;-6.300;2023-02-01T09:57:13;102076.88;;;9.63;79.62
64368;BME280;50692;53.314;-6.300;2023-02-01T10:00:23;102056.75;;;9.59;79.71
64368;BME280;50692;53.314;-6.300;2023-02-01T10:03:11;102071.44;;;9.69;79.67
64368;BME280;50692;53.314;-6.300;2023-02-01T10:15:40;102066.72;;;10.12;78.70
64368;BME280;50692;53.314;-6.300;2023-02-01T10:22:09;102056.31;;;10.65;75.64
64368;BME280;50692;53.314;-6.300;2023-02-01T10:28:13;102056.91;;;11.26;73.37
64368;BME280;50692;53.314;-6.300;2023-02-01T10:31:01;102024.50;;;11.19;72.33
64368;BME280;50692;53.314;-6.300;2023-02-01T10:33:58;102060.22;;;11.58;71.65
64368;BME280;50692;53.314;-6.300;2023-02-01T10:37:07;102060.72;;;11.44;71.53
64368;BME280;50692;53.314;-6.300;2023-02-01T10:40:02;102061.66;;;11.41;72.73
64368;BME280;50692;53.314;-6.300;2023-02-01T10:42:57;102069.13;;;11.30;73.83
64368;BME280;50692;53.314;-6.300;2023-02-01T10:45:48;102050.53;;;11.32;73.65
64368;BME280;50692;53.314;-6.300;2023-02-01T10:48:35;102064.78;;;11.77;72.30
64368;BME280;50692;53.314;-6.300;2023-02-01T10:51:30;102078.03;;;12.03;71.01
64368;BME280;50692;53.314;-6.300;2023-02-01T10:54:36;102079.75;;;12.27;69.29
64368;BME280;50692;53.314;-6.300;2023-02-01T10:57:25;102072.50;;;12.32;68.93
64368;BME280;50692;53.314;-6.300;2023-02-01T11:00:25;102079.91;;;12.46;68.83
64368;BME280;50692;53.314;-6.300;2023-02-01T11:09:21;102090.88;;;12.37;68.76
64368;BME280;50692;53.314;-6.300;2023-02-01T11:15:27;102096.03;;;12.63;68.51
64368;BME280;50692;53.314;-6.300;2023-02-01T11:18:28;102100.66;;;12.80;67.58
64368;BME280;50692;53.314;-6.300;2023-02-01T11:21:15;102096.19;;;13.03;67.54
64368;BME280;50692;53.314;-6.300;2023-02-01T11:24:05;102087.06;;;12.88;66.48
64368;BME280;50692;53.314;-6.300;2023-02-01T11:26:57;102064.78;;;12.26;68.06
64368;BME280;50692;53.314;-6.300;2023-02-01T11:29:52;102076.63;;;11.92;70.28
64368;BME280;50692;53.314;-6.300;2023-02-01T11:32:40;102068.53;;;11.72;70.79
64368;BME280;50692;53.314;-6.300;2023-02-01T11:35:28;102067.63;;;11.48;71.73
64368;BME280;50692;53.314;-6.300;2023-02-01T11:38:32;102047.19;;;11.26;72.38
64368;BME280;50692;53.314;-6.300;2023-02-01T11:41:28;102060.50;;;11.25;72.85
64368;BME280;50692;53.314;-6.300;2023-02-01T11:44:26;102052.38;;;11.29;72.61
64368;BME280;50692;53.314;-6.300;2023-02-01T11:50:28;102065.25;;;11.65;72.52
64368;BME280;50692;53.314;-6.300;2023-02-01T11:56:41;102028.91;;;11.94;69.80
64368;BME280;50692;53.314;-6.300;2023-02-01T12:05:47;102038.41;;;12.45;67.44
64368;BME280;50692;53.314;-6.300;2023-02-01T12:12:03;102020.84;;;12.64;66.24
64368;BME280;50692;53.314;-6.300;2023-02-01T12:37:36;102033.53;;;12.34;66.81
64368;BME280;50692;53.314;-6.300;2023-02-01T12:46:49;102022.03;;;12.12;67.79
64368;BME280;50692;53.314;-6.300;2023-02-01T12:49:43;102023.06;;;12.08;67.79
64368;BME280;50692;53.314;-6.300;2023-02-01T12:52:44;102021.09;;;12.13;68.04
64368;BME280;50692;53.314;-6.300;2023-02-01T12:55:38;102007.06;;;12.11;67.70
64368;BME280;50692;53.314;-6.300;2023-02-01T13:01:46;102014.59;;;12.43;67.45
64368;BME280;50692;53.314;-6.300;2023-02-01T13:04:52;102018.66;;;12.52;66.32
64368;BME280;50692;53.314;-6.300;2023-02-01T13:07:55;102001.09;;;12.71;65.84
64368;BME280;50692;53.314;-6.300;2023-02-01T13:10:48;102004.44;;;12.97;65.12
64368;BME280;50692;53.314;-6.300;2023-02-01T13:13:52;102003.38;;;13.01;63.92
64368;BME280;50692;53.314;-6.300;2023-02-01T13:16:47;102018.78;;;12.93;64.46
64368;BME280;50692;53.314;-6.300;2023-02-01T13:19:45;102012.13;;;13.03;63.77
64368;BME280;50692;53.314;-6.300;2023-02-01T13:22:42;102015.09;;;12.95;63.53
64368;BME280;50692;53.314;-6.300;2023-02-01T13:25:37;102020.38;;;12.97;63.25
64368;BME280;50692;53.314;-6.300;2023-02-01T13:43:27;102021.97;;;12.35;64.88
64368;BME280;50692;53.314;-6.300;2023-02-01T13:46:14;102016.94;;;12.29;65.02
64368;BME280;50692;53.314;-6.300;2023-02-01T13:49:02;102019.06;;;12.19;65.52
64368;BME280;50692;53.314;-6.300;2023-02-01T13:51:51;102012.06;;;12.18;65.51
64368;BME280;50692;53.314;-6.300;2023-02-01T13:54:39;102007.97;;;12.10;65.46
64368;BME280;50692;53.314;-6.300;2023-02-01T13:57:37;102011.78;;;12.03;66.12
64368;BME280;50692;53.314;-6.300;2023-02-01T14:00:30;102019.03;;;11.97;66.79
64368;BME280;50692;53.314;-6.300;2023-02-01T14:03:22;102022.88;;;11.89;67.54
64368;BME280;50692;53.314;-6.300;2023-02-01T14:06:36;101985.38;;;11.76;68.07
64368;BME280;50692;53.314;-6.300;2023-02-01T14:09:34;102009.13;;;12.03;67.93
64368;BME280;50692;53.314;-6.300;2023-02-01T14:12:46;102003.81;;;12.26;67.67
64368;BME280;50692;53.314;-6.300;2023-02-01T14:15:32;102023.84;;;12.33;67.54
64368;BME280;50692;53.314;-6.300;2023-02-01T14:21:25;102006.78;;;12.40;67.27
64368;BME280;50692;53.314;-6.300;2023-02-01T14:24:22;102008.13;;;12.51;66.90
64368;BME280;50692;53.314;-6.300;2023-02-01T14:30:01;102009.53;;;12.37;66.57
64368;BME280;50692;53.314;-6.300;2023-02-01T14:32:47;102008.06;;;12.30;66.83
64368;BME280;50692;53.314;-6.300;2023-02-01T14:35:33;102011.75;;;12.26;67.08
64368;BME280;50692;53.314;-6.300;2023-02-01T14:38:20;102013.47;;;12.49;66.10
64368;BME280;50692;53.314;-6.300;2023-02-01T14:47:29;102005.34;;;12.76;63.81
64368;BME280;50692;53.314;-6.300;2023-02-01T14:53:34;102010.63;;;12.76;63.82
64368;BME280;50692;53.314;-6.300;2023-02-01T14:56:21;102008.59;;;12.82;63.52
64368;BME280;50692;53.314;-6.300;2023-02-01T14:59:13;102010.38;;;12.82;63.61
64368;BME280;50692;53.314;-6.300;2023-02-01T15:02:02;102012.44;;;12.75;63.42
64368;BME280;50692;53.314;-6.300;2023-02-01T15:05:35;102013.97;;;12.81;63.19
64368;BME280;50692;53.314;-6.300;2023-02-01T15:08:25;102018.41;;;12.80;63.33
64368;BME280;50692;53.314;-6.300;2023-02-01T15:11:15;102016.28;;;12.68;63.38
64368;BME280;50692;53.314;-6.300;2023-02-01T15:14:01;102014.75;;;12.39;64.51
64368;BME280;50692;53.314;-6.300;2023-02-01T15:16:47;102007.44;;;12.23;64.97
64368;BME280;50692;53.314;-6.300;2023-02-01T15:19:39;102017.66;;;12.11;65.44
64368;BME280;50692;53.314;-6.300;2023-02-01T15:22:26;101996.84;;;11.76;66.02
64368;BME280;50692;53.314;-6.300;2023-02-01T15:25:24;102013.09;;;11.91;66.44
64368;BME280;50692;53.314;-6.300;2023-02-01T15:28:14;102005.41;;;11.83;67.11
64368;BME280;50692;53.314;-6.300;2023-02-01T15:31:04;101993.97;;;11.83;67.42
64368;BME280;50692;53.314;-6.300;2023-02-01T15:33:57;102003.94;;;11.76;67.25
64368;BME280;50692;53.314;-6.300;2023-02-01T15:36:44;101980.41;;;11.67;67.51
64368;BME280;50692;53.314;-6.300;2023-02-01T15:39:30;102003.66;;;11.84;67.19
64368;BME280;50692;53.314;-6.300;2023-02-01T15:42:18;102011.06;;;11.74;67.64
64368;BME280;50692;53.314;-6.300;2023-02-01T15:45:17;102013.69;;;11.74;67.78
64368;BME280;50692;53.314;-6.300;2023-02-01T15:48:04;102005.25;;;11.64;67.81
64368;BME280;50692;53.314;-6.300;2023-02-01T15:50:50;102006.97;;;11.65;68.10
64368;BME280;50692;53.314;-6.300;2023-02-01T15:53:37;102004.34;;;11.64;68.16
64368;BME280;50692;53.314;-6.300;2023-02-01T15:56:25;102020.72;;;11.51;68.84
64368;BME280;50692;53.314;-6.300;2023-02-01T15:59:16;102012.75;;;11.51;69.22
64368;BME280;50692;53.314;-6.300;2023-02-01T16:02:04;102022.44;;;11.52;69.42
64368;BME280;50692;53.314;-6.300;2023-02-01T16:04:50;102021.84;;;11.44;69.85
64368;BME280;50692;53.314;-6.300;2023-02-01T16:07:36;102023.81;;;11.39;70.13
64368;BME280;50692;53.314;-6.300;2023-02-01T16:10:27;102021.31;;;11.35;70.58
64368;BME280;50692;53.314;-6.300;2023-02-01T16:13:15;102032.00;;;11.32;70.94
64368;BME280;50692;53.314;-6.300;2023-02-01T16:16:01;102014.78;;;11.20;71.89
64368;BME280;50692;53.314;-6.300;2023-02-01T16:18:47;102029.13;;;11.13;72.28
64368;BME280;50692;53.314;-6.300;2023-02-01T16:21:33;102032.75;;;11.10;72.46
64368;BME280;50692;53.314;-6.300;2023-02-01T16:24:19;102031.00;;;11.09;72.71
64368;BME280;50692;53.314;-6.300;2023-02-01T16:27:07;102036.41;;;11.06;72.71
64368;BME280;50692;53.314;-6.300;2023-02-01T16:29:53;102038.53;;;10.96;73.22
64368;BME280;50692;53.314;-6.300;2023-02-01T16:32:41;102018.22;;;10.97;72.90
64368;BME280;50692;53.314;-6.300;2023-02-01T16:35:30;102031.34;;;11.00;72.95
64368;BME280;50692;53.314;-6.300;2023-02-01T16:38:22;102034.00;;;11.00;73.06
64368;BME280;50692;53.314;-6.300;2023-02-01T16:41:12;102034.19;;;10.94;73.35
64368;BME280;50692;53.314;-6.300;2023-02-01T16:43:58;102035.06;;;10.94;73.33
64368;BME280;50692;53.314;-6.300;2023-02-01T16:46:45;102034.38;;;10.88;73.60
64368;BME280;50692;53.314;-6.300;2023-02-01T16:49:33;102025.59;;;10.87;73.71
64368;BME280;50692;53.314;-6.300;2023-02-01T16:52:21;102036.09;;;10.89;73.54
64368;BME280;50692;53.314;-6.300;2023-02-01T16:55:12;102033.59;;;10.86;73.38